Time;durP1;ratioP1;P1;durP2;ratioP2;P2;SDS_P1;SDS_P2;PMS_P1;PMS_P2;Temp;Humidity;BMP_temperature;BMP_pressure;BME280_temperature;BME280_humidity;BME280_pressure;Samples;Min_cycle;Max_cycle;Signal;HPM_P1;HPM_P2
2021/12/31 00:00:26;;;;;;;20.03;6.67;;;8.40;81.30;;;;;;5022022;28;20029;-78
2021/12/31 00:02:52;;;;;;;18.37;6.93;;;8.40;81.30;;;;;;5020739;28;20296;-78
2021/12/31 00:05:18;;;;;;;21.60;7.70;;;8.40;81.10;;;;;;5023947;28;20060;-79
2021/12/31 00:07:45;;;;;;;19.80;6.77;;;8.40;81.30;;;;;;5022880;28;20400;-79
2021/12/31 00:10:11;;;;;;;22.83;6.23;;;8.30;81.10;;;;;;5022329;28;20779;-79
2021/12/31 00:12:40;;;;;;;16.60;6.33;;;8.20;80.90;;;;;;5027174;28;20444;-79
2021/12/31 00:15:06;;;;;;;39.00;6.73;;;8.20;81.30;;;;;;5025873;28;20028;-79
2021/12/31 00:17:32;;;;;;;23.83;7.53;;;8.20;81.20;;;;;;5023735;28;20056;-79
2021/12/31 00:20:12;;;;;;;37.77;7.43;;;8.20;81.60;;;;;;5018934;28;20038;-79
2021/12/31 00:22:58;;;;;;;26.87;8.53;;;8.20;81.40;;;;;;5018681;28;20112;-79
2021/12/31 00:25:24;;;;;;;84.50;10.87;;;8.20;81.30;;;;;;5024012;28;20039;-78
2021/12/31 00:27:50;;;;;;;23.30;7.83;;;8.30;81.00;;;;;;5017193;28;20065;-79
2021/12/31 00:30:17;;;;;;;24.60;6.37;;;8.30;81.10;;;;;;5012811;28;20466;-79
2021/12/31 00:32:43;;;;;;;25.43;6.87;;;8.20;81.10;;;;;;5023493;28;20045;-79
2021/12/31 00:35:09;;;;;;;39.77;8.50;;;8.20;81.10;;;;;;5015156;28;20022;-79
2021/12/31 00:37:37;;;;;;;20.90;6.70;;;8.20;81.10;;;;;;5018962;28;20035;-79
2021/12/31 00:40:06;;;;;;;22.53;6.40;;;8.30;81.00;;;;;;5021918;28;20061;-79
2021/12/31 00:42:32;;;;;;;22.13;5.77;;;8.30;81.00;;;;;;5026207;28;20033;-79
2021/12/31 00:44:58;;;;;;;11.60;5.50;;;8.30;81.00;;;;;;5027581;28;20072;-79
2021/12/31 00:47:23;;;;;;;20.67;4.83;;;8.20;80.80;;;;;;5025957;28;20032;-79
2021/12/31 00:49:49;;;;;;;15.47;5.17;;;8.20;80.70;;;;;;5021230;28;20032;-79
2021/12/31 00:52:15;;;;;;;16.40;4.80;;;8.10;80.60;;;;;;5027484;28;20109;-79
2021/12/31 00:54:41;;;;;;;22.30;5.23;;;8.10;80.80;;;;;;5027194;28;20026;-78
2021/12/31 00:57:07;;;;;;;78.37;9.17;;;8.10;80.70;;;;;;5017519;28;20416;-79
2021/12/31 00:59:34;;;;;;;25.93;6.33;;;8.10;80.80;;;;;;5026297;28;20033;-78
2021/12/31 01:02:04;;;;;;;41.83;7.50;;;8.10;80.70;;;;;;5029150;28;20033;-78
2021/12/31 01:04:33;;;;;;;46.77;8.43;;;8.10;80.60;;;;;;5027799;28;20042;-78
2021/12/31 01:07:01;;;;;;;34.00;9.50;;;8.10;80.60;;;;;;5023228;28;20038;-78
2021/12/31 01:09:28;;;;;;;67.33;9.60;;;8.10;80.50;;;;;;5028739;28;20030;-79
2021/12/31 01:11:56;;;;;;;40.63;9.53;;;8.00;80.50;;;;;;5042873;28;20073;-79
2021/12/31 01:14:30;;;;;;;33.10;8.93;;;8.00;80.50;;;;;;5026485;28;20505;-80
2021/12/31 01:17:00;;;;;;;50.20;9.80;;;8.00;80.60;;;;;;5022623;28;20025;-79
2021/12/31 01:21:53;;;;;;;16.93;9.50;;;8.00;80.30;;;;;;5023441;28;20041;-79
2021/12/31 01:24:22;;;;;;;41.17;8.17;;;8.00;80.40;;;;;;5026539;28;20408;-79
2021/12/31 01:26:48;;;;;;;32.37;8.27;;;8.00;80.50;;;;;;5026639;28;20658;-79
2021/12/31 01:29:14;;;;;;;43.33;7.40;;;8.00;80.40;;;;;;5021838;28;20041;-78
2021/12/31 01:31:40;;;;;;;38.23;7.97;;;8.00;80.40;;;;;;5008063;28;20039;-78
2021/12/31 01:34:06;;;;;;;54.07;7.37;;;8.00;80.30;;;;;;5023726;28;20108;-78
2021/12/31 01:36:32;;;;;;;76.00;9.13;;;8.00;80.30;;;;;;5025291;28;20492;-78
2021/12/31 01:38:58;;;;;;;52.93;8.10;;;8.00;80.50;;;;;;5024296;28;20017;-80
2021/12/31 01:41:24;;;;;;;36.30;7.27;;;8.00;80.60;;;;;;5026553;28;20384;-78
2021/12/31 01:43:52;;;;;;;36.67;6.70;;;8.00;80.60;;;;;;5021474;28;20108;-78
2021/12/31 01:46:17;;;;;;;28.20;7.40;;;8.00;80.50;;;;;;5021831;28;20064;-78
2021/12/31 01:51:25;;;;;;;34.47;8.10;;;8.00;80.30;;;;;;5026383;28;20388;-79
2021/12/31 01:53:51;;;;;;;30.33;7.87;;;8.00;80.20;;;;;;5024366;28;20033;-79
2021/12/31 01:56:18;;;;;;;32.00;7.03;;;8.00;80.40;;;;;;5024745;28;20025;-79
2021/12/31 01:58:47;;;;;;;34.63;8.37;;;8.00;80.30;;;;;;5020493;28;20014;-79
2021/12/31 02:01:13;;;;;;;31.43;7.50;;;7.90;80.10;;;;;;5045054;28;20160;-79
2021/12/31 02:03:39;;;;;;;30.10;7.03;;;7.90;80.30;;;;;;5027170;28;20479;-78
2021/12/31 02:06:05;;;;;;;88.57;9.63;;;7.90;80.40;;;;;;5019372;28;20040;-79
2021/12/31 02:08:32;;;;;;;156.63;15.30;;;7.90;80.50;;;;;;5027410;28;20087;-79
2021/12/31 02:10:58;;;;;;;112.80;10.67;;;8.00;80.60;;;;;;5023327;28;20103;-79
2021/12/31 02:13:25;;;;;;;76.33;12.60;;;7.90;80.50;;;;;;5027429;28;20105;-79
2021/12/31 02:15:52;;;;;;;431.83;25.70;;;7.90;80.80;;;;;;5023874;28;20029;-79
2021/12/31 02:18:18;;;;;;;32.80;7.13;;;7.90;81.00;;;;;;5030456;28;20373;-79
2021/12/31 02:20:45;;;;;;;26.53;5.53;;;7.90;80.90;;;;;;5023397;28;20093;-79
2021/12/31 02:23:20;;;;;;;39.40;7.20;;;7.80;80.80;;;;;;5018987;28;20026;-79
2021/12/31 02:25:46;;;;;;;40.23;6.47;;;7.90;80.90;;;;;;5027323;28;20029;-79
2021/12/31 02:28:12;;;;;;;26.30;5.83;;;7.80;80.60;;;;;;5029616;28;20029;-79
2021/12/31 02:30:38;;;;;;;24.23;5.77;;;7.80;80.80;;;;;;5025389;28;20038;-79
2021/12/31 02:33:04;;;;;;;20.87;6.13;;;7.80;80.80;;;;;;5023734;28;20083;-79
2021/12/31 02:35:34;;;;;;;10.50;5.97;;;7.80;80.80;;;;;;5026290;28;20109;-79
2021/12/31 02:38:01;;;;;;;25.97;6.00;;;7.80;80.60;;;;;;5027271;28;20065;-79
2021/12/31 02:40:28;;;;;;;11.80;5.83;;;7.80;80.60;;;;;;5021886;28;20026;-79
2021/12/31 02:42:57;;;;;;;28.17;6.00;;;7.80;80.50;;;;;;5024219;28;21567;-79
2021/12/31 02:45:29;;;;;;;32.47;6.03;;;7.80;80.50;;;;;;5024172;28;20046;-79
2021/12/31 02:47:56;;;;;;;;;;;7.80;80.50;;;;;;5028999;28;20037;-79
2021/12/31 02:50:33;;;;;;;23.80;5.60;;;7.80;80.60;;;;;;5028521;28;19935;-79
2021/12/31 02:52:59;;;;;;;31.80;4.93;;;7.80;80.30;;;;;;5029030;28;20037;-79
2021/12/31 02:55:26;;;;;;;15.37;4.67;;;7.80;80.50;;;;;;5018935;28;20067;-79
2021/12/31 02:57:52;;;;;;;21.73;5.30;;;7.80;80.50;;;;;;5032116;28;20040;-79
2021/12/31 03:00:18;;;;;;;22.73;5.23;;;7.70;80.60;;;;;;5031836;28;20037;-79
2021/12/31 03:02:45;;;;;;;9.03;4.50;;;7.70;80.40;;;;;;5021069;28;20111;-78
2021/12/31 03:05:12;;;;;;;22.27;5.60;;;7.70;80.60;;;;;;5032229;28;20018;-78
2021/12/31 03:07:40;;;;;;;15.07;5.13;;;7.70;80.40;;;;;;5031035;28;20030;-79
2021/12/31 03:10:07;;;;;;;12.50;5.30;;;7.70;80.60;;;;;;5022232;28;20025;-79
2021/12/31 03:12:33;;;;;;;15.40;4.30;;;7.70;80.50;;;;;;5024514;28;20118;-79
2021/12/31 03:14:59;;;;;;;44.63;9.90;;;7.70;80.50;;;;;;5026956;28;20099;-79
2021/12/31 03:17:26;;;;;;;15.77;5.63;;;7.70;80.60;;;;;;5026110;28;20350;-79
2021/12/31 03:20:00;;;;;;;15.30;5.50;;;7.70;81.20;;;;;;5030233;28;20460;-79
2021/12/31 03:22:25;;;;;;;27.90;7.27;;;7.70;80.50;;;;;;5031968;28;20031;-79
2021/12/31 03:24:51;;;;;;;8.87;4.43;;;7.70;80.30;;;;;;5027368;28;20022;-79
2021/12/31 03:27:17;;;;;;;18.70;4.67;;;7.60;80.30;;;;;;5030217;28;20044;-79
2021/12/31 03:29:44;;;;;;;5.23;3.90;;;7.70;80.50;;;;;;5028092;28;20029;-79
2021/12/31 03:32:10;;;;;;;7.93;5.00;;;7.70;80.30;;;;;;5027574;28;20057;-79
2021/12/31 03:34:35;;;;;;;10.77;4.77;;;7.70;80.30;;;;;;5030817;28;20064;-79
2021/12/31 03:37:01;;;;;;;11.57;4.50;;;7.70;80.40;;;;;;5032822;28;20026;-79
2021/12/31 03:39:27;;;;;;;13.73;4.40;;;7.70;80.20;;;;;;5025986;28;20045;-79
2021/12/31 03:41:52;;;;;;;15.97;4.07;;;7.70;79.90;;;;;;5016946;28;20117;-79
2021/12/31 03:44:18;;;;;;;12.70;4.87;;;7.70;80.00;;;;;;5024991;28;20029;-79
2021/12/31 03:46:44;;;;;;;10.83;4.30;;;7.70;80.20;;;;;;5025930;28;20108;-79
2021/12/31 03:49:10;;;;;;;14.63;4.80;;;7.70;80.00;;;;;;5012349;28;20462;-78
2021/12/31 03:51:36;;;;;;;7.97;4.57;;;7.60;79.90;;;;;;5019172;28;20105;-79
2021/12/31 03:54:01;;;;;;;11.60;4.77;;;7.60;79.90;;;;;;5029533;28;20026;-79
2021/12/31 03:56:31;;;;;;;7.13;4.80;;;7.60;80.00;;;;;;5024020;28;20562;-79
2021/12/31 03:58:58;;;;;;;10.20;5.40;;;7.60;80.10;;;;;;5027765;28;20026;-79
2021/12/31 04:01:25;;;;;;;9.43;5.07;;;7.60;80.30;;;;;;5031469;28;20033;-79
2021/12/31 04:03:51;;;;;;;11.40;6.23;;;7.60;79.80;;;;;;5016767;28;20022;-78
2021/12/31 04:06:17;;;;;;;11.77;5.30;;;7.60;79.80;;;;;;5019406;28;20032;-78
2021/12/31 04:08:42;;;;;;;13.67;4.67;;;7.60;79.90;;;;;;5023729;28;20032;-78
2021/12/31 04:11:11;;;;;;;14.57;5.20;;;7.50;80.10;;;;;;5025211;28;20526;-79
2021/12/31 04:13:37;;;;;;;24.07;5.40;;;7.60;80.10;;;;;;5022360;28;20536;-79
2021/12/31 04:16:03;;;;;;;10.10;4.60;;;7.60;80.10;;;;;;5025555;28;20018;-79
2021/12/31 04:18:29;;;;;;;12.07;5.80;;;7.50;80.50;;;;;;5027789;28;20087;-79
2021/12/31 04:20:56;;;;;;;11.17;4.50;;;7.50;80.00;;;;;;5023426;28;20144;-79
2021/12/31 04:23:28;;;;;;;22.33;4.87;;;7.50;80.10;;;;;;5016547;28;20473;-78
2021/12/31 04:25:55;;;;;;;8.93;3.40;;;7.60;79.90;;;;;;5024286;28;20026;-79
2021/12/31 04:28:21;;;;;;;15.93;4.43;;;7.60;80.10;;;;;;5027441;28;20103;-80
2021/12/31 04:30:47;;;;;;;13.80;3.97;;;7.50;80.10;;;;;;5022366;28;20837;-79
2021/12/31 04:33:13;;;;;;;12.77;4.60;;;7.60;80.40;;;;;;5022006;28;20045;-79
2021/12/31 04:35:39;;;;;;;32.73;6.27;;;7.60;80.00;;;;;;5024658;28;20514;-80
2021/12/31 04:38:04;;;;;;;23.03;5.13;;;7.50;79.60;;;;;;5019400;28;20479;-80
2021/12/31 04:40:30;;;;;;;51.40;6.27;;;7.50;80.10;;;;;;5038064;28;20027;-80
2021/12/31 04:42:56;;;;;;;12.73;4.73;;;7.50;80.10;;;;;;5029214;28;20030;-80
2021/12/31 04:45:21;;;;;;;16.10;4.83;;;7.50;80.00;;;;;;5028781;28;20049;-80
2021/12/31 04:47:47;;;;;;;8.13;3.80;;;7.50;79.70;;;;;;5029844;28;20025;-79
2021/12/31 04:50:13;;;;;;;7.30;5.00;;;7.40;79.80;;;;;;5026165;28;20025;-79
2021/12/31 04:52:40;;;;;;;17.53;4.97;;;7.30;80.10;;;;;;5022285;28;20030;-80
2021/12/31 04:55:06;;;;;;;12.13;4.80;;;7.40;80.30;;;;;;5026466;28;20027;-80
2021/12/31 04:57:32;;;;;;;7.83;4.23;;;7.40;80.50;;;;;;5027035;28;20460;-80
2021/12/31 04:59:58;;;;;;;6.47;3.97;;;7.50;80.10;;;;;;5021379;28;20038;-80
2021/12/31 05:02:23;;;;;;;9.87;5.50;;;7.50;79.90;;;;;;5023817;28;20392;-79
2021/12/31 05:04:49;;;;;;;9.37;5.97;;;7.40;79.70;;;;;;5027364;28;20112;-80
2021/12/31 05:07:15;;;;;;;8.60;6.10;;;7.40;80.00;;;;;;5030341;28;20484;-80
2021/12/31 05:09:41;;;;;;;10.83;6.07;;;7.40;79.90;;;;;;5041861;28;20041;-79
2021/12/31 05:12:09;;;;;;;9.60;6.00;;;7.40;80.00;;;;;;5023199;28;20480;-80
2021/12/31 05:14:35;;;;;;;9.30;5.30;;;7.30;80.20;;;;;;5026302;28;20396;-80
2021/12/31 05:17:01;;;;;;;8.93;5.67;;;7.30;80.20;;;;;;5020970;28;20025;-80
2021/12/31 05:19:26;;;;;;;6.97;5.33;;;7.30;80.30;;;;;;5021614;28;20030;-80
2021/12/31 05:21:52;;;;;;;5.20;4.47;;;7.40;80.30;;;;;;5022698;28;20054;-80
2021/12/31 05:24:18;;;;;;;6.13;4.80;;;7.40;80.00;;;;;;5024481;28;20408;-80
2021/12/31 05:26:44;;;;;;;5.93;4.30;;;7.30;80.10;;;;;;5020558;28;20487;-80
2021/12/31 05:29:10;;;;;;;6.37;4.57;;;7.40;80.40;;;;;;5038541;28;20067;-80
2021/12/31 05:31:36;;;;;;;7.27;4.70;;;7.40;80.30;;;;;;5022008;28;20025;-80
2021/12/31 05:34:02;;;;;;;8.73;5.03;;;7.40;80.00;;;;;;5024898;28;20026;-80
2021/12/31 05:36:28;;;;;;;7.73;4.90;;;7.40;79.90;;;;;;5021995;28;20041;-80
2021/12/31 05:38:54;;;;;;;10.47;5.87;;;7.40;80.00;;;;;;5021851;28;20401;-80
2021/12/31 05:41:19;;;;;;;11.97;5.23;;;7.50;79.80;;;;;;5021543;28;20538;-80
2021/12/31 05:43:45;;;;;;;59.30;7.73;;;7.50;79.90;;;;;;5023656;28;20643;-80
2021/12/31 05:46:11;;;;;;;10.17;5.43;;;7.50;80.10;;;;;;5022341;28;20060;-80
2021/12/31 05:48:37;;;;;;;94.07;9.60;;;7.50;79.90;;;;;;5026629;28;20022;-80
2021/12/31 05:51:03;;;;;;;7.47;5.40;;;7.60;80.20;;;;;;5022124;28;20644;-80
2021/12/31 05:53:29;;;;;;;10.07;6.00;;;7.60;79.70;;;;;;5023759;28;20718;-80
2021/12/31 05:55:55;;;;;;;7.87;4.93;;;7.60;79.60;;;;;;5021749;28;20307;-80
2021/12/31 05:58:21;;;;;;;7.33;5.30;;;7.50;79.70;;;;;;5030820;28;20079;-80
2021/12/31 06:00:46;;;;;;;7.93;4.17;;;7.60;79.70;;;;;;5027439;28;20040;-80
2021/12/31 06:03:12;;;;;;;7.10;4.53;;;7.40;79.40;;;;;;5029786;28;20031;-80
2021/12/31 06:05:38;;;;;;;7.80;5.80;;;7.40;80.00;;;;;;5023217;28;20022;-80
2021/12/31 06:08:04;;;;;;;7.30;5.80;;;7.40;79.90;;;;;;5024970;28;20534;-80
2021/12/31 06:10:31;;;;;;;7.17;4.63;;;7.40;80.00;;;;;;5023088;28;20068;-79
2021/12/31 06:13:00;;;;;;;10.47;5.27;;;7.40;79.80;;;;;;5020960;28;20086;-80
2021/12/31 06:15:28;;;;;;;6.40;3.97;;;7.30;79.50;;;;;;5024109;28;20033;-80
2021/12/31 06:17:54;;;;;;;10.47;4.13;;;7.30;79.90;;;;;;5031580;28;20025;-80
2021/12/31 06:20:20;;;;;;;8.10;4.30;;;7.20;80.00;;;;;;5023772;28;20029;-80
2021/12/31 06:22:46;;;;;;;8.20;4.60;;;7.20;80.10;;;;;;5027518;28;20445;-80
2021/12/31 06:25:12;;;;;;;7.87;4.57;;;7.20;80.30;;;;;;5027770;28;20879;-80
2021/12/31 06:27:37;;;;;;;6.17;4.80;;;7.20;80.20;;;;;;5027559;28;20026;-80
2021/12/31 06:30:04;;;;;;;12.07;5.23;;;7.20;80.10;;;;;;5028463;28;20034;-80
2021/12/31 06:32:30;;;;;;;6.70;4.80;;;7.20;79.80;;;;;;5027506;28;20081;-80
2021/12/31 06:34:56;;;;;;;6.83;3.73;;;7.20;80.50;;;;;;5028136;28;20434;-80
2021/12/31 06:37:21;;;;;;;11.77;3.67;;;7.20;80.20;;;;;;5027229;28;20028;-80
2021/12/31 06:39:47;;;;;;;6.27;3.07;;;7.10;79.40;;;;;;5022037;28;20049;-79
2021/12/31 06:42:13;;;;;;;6.20;3.70;;;6.90;80.20;;;;;;5025188;28;20060;-80
2021/12/31 06:44:39;;;;;;;9.30;3.67;;;7.00;80.70;;;;;;5022188;28;20060;-80
2021/12/31 06:47:06;;;;;;;7.80;3.83;;;7.00;80.50;;;;;;5025300;28;20500;-80
2021/12/31 06:49:32;;;;;;;103.77;9.33;;;6.90;79.90;;;;;;5022298;28;20030;-80
2021/12/31 06:51:58;;;;;;;11.37;4.20;;;6.80;80.30;;;;;;5024823;28;20025;-80
2021/12/31 06:54:24;;;;;;;8.97;3.70;;;6.80;80.40;;;;;;5023489;28;20473;-80
2021/12/31 06:56:50;;;;;;;7.73;4.00;;;6.80;80.90;;;;;;5025466;28;20061;-80
2021/12/31 06:59:15;;;;;;;12.97;4.70;;;6.90;80.60;;;;;;5027198;28;20484;-80
2021/12/31 07:01:41;;;;;;;7.40;4.33;;;6.80;80.40;;;;;;5030530;28;20049;-80
2021/12/31 07:04:07;;;;;;;25.87;4.90;;;6.80;80.60;;;;;;5022262;28;20029;-80
2021/12/31 07:06:33;;;;;;;13.07;5.00;;;6.60;80.30;;;;;;5025339;28;20029;-80
2021/12/31 07:08:58;;;;;;;15.50;4.83;;;6.50;80.90;;;;;;5024911;28;20246;-80
2021/12/31 07:11:24;;;;;;;8.97;5.30;;;6.60;81.30;;;;;;5022058;28;20060;-80
2021/12/31 07:13:50;;;;;;;115.97;10.17;;;6.50;81.30;;;;;;5025960;28;20025;-80
2021/12/31 07:16:16;;;;;;;8.13;3.90;;;6.50;81.10;;;;;;5024405;28;20119;-80
2021/12/31 07:18:42;;;;;;;10.50;4.57;;;6.50;81.50;;;;;;5029300;28;20411;-79
2021/12/31 07:21:08;;;;;;;3.70;2.90;;;6.40;81.60;;;;;;5026330;28;20045;-80
2021/12/31 07:23:34;;;;;;;5.50;3.70;;;6.70;82.00;;;;;;5018975;28;20595;-80
2021/12/31 07:25:59;;;;;;;9.73;3.07;;;6.90;80.70;;;;;;5020006;28;20025;-80
2021/12/31 07:28:25;;;;;;;8.03;3.67;;;6.90;81.30;;;;;;5019479;28;20042;-80
2021/12/31 07:30:51;;;;;;;5.20;3.30;;;6.90;80.50;;;;;;5025863;28;20380;-80
2021/12/31 07:33:21;;;;;;;6.00;3.83;;;6.90;80.40;;;;;;5024976;28;20029;-80
2021/12/31 07:35:47;;;;;;;7.23;3.90;;;7.00;81.10;;;;;;5023811;28;20108;-80
2021/12/31 07:38:28;;;;;;;7.57;5.53;;;7.00;79.90;;;;;;5019879;28;20049;-80
2021/12/31 07:40:54;;;;;;;9.67;4.57;;;6.80;80.00;;;;;;5022255;28;20040;-80
2021/12/31 07:43:21;;;;;;;5.53;3.40;;;6.80;81.10;;;;;;5025865;28;20044;-80
2021/12/31 07:45:48;;;;;;;7.30;3.60;;;6.90;81.20;;;;;;5024790;28;20052;-80
2021/12/31 07:48:13;;;;;;;9.10;3.43;;;7.10;80.80;;;;;;5026496;28;20061;-80
2021/12/31 07:50:39;;;;;;;13.90;4.57;;;7.10;79.50;;;;;;5021185;28;20485;-79
2021/12/31 07:53:06;;;;;;;7.93;3.97;;;7.00;79.90;;;;;;5023469;28;20029;-80
2021/12/31 07:55:33;;;;;;;4.93;3.97;;;7.00;80.10;;;;;;5022203;28;20029;-80
2021/12/31 07:57:59;;;;;;;5.90;3.30;;;7.00;80.20;;;;;;5024287;28;20026;-79
2021/12/31 08:00:24;;;;;;;9.07;3.60;;;7.00;80.00;;;;;;5022547;28;20038;-78
2021/12/31 08:02:50;;;;;;;10.27;3.97;;;7.00;80.00;;;;;;5021687;28;20047;-78
2021/12/31 08:05:16;;;;;;;4.63;3.03;;;6.80;79.80;;;;;;5023859;28;20067;-78
2021/12/31 08:07:42;;;;;;;12.27;3.93;;;6.80;80.00;;;;;;5022490;28;20469;-78
2021/12/31 08:10:08;;;;;;;22.20;5.00;;;6.70;79.80;;;;;;5022583;28;20033;-78
2021/12/31 08:12:35;;;;;;;6.53;3.73;;;6.60;79.50;;;;;;5038754;28;20333;-78
2021/12/31 08:15:03;;;;;;;7.23;5.70;;;6.50;80.30;;;;;;5018297;28;20091;-78
2021/12/31 08:17:30;;;;;;;16.27;5.60;;;6.60;80.90;;;;;;5017550;28;20057;-78
2021/12/31 08:19:55;;;;;;;6.07;4.33;;;6.70;80.50;;;;;;5015532;28;20034;-78
2021/12/31 08:22:24;;;;;;;10.67;5.03;;;6.90;80.90;;;;;;5018738;28;20034;-78
2021/12/31 08:24:50;;;;;;;8.40;5.30;;;7.10;80.60;;;;;;5017917;28;20030;-78
2021/12/31 08:27:16;;;;;;;7.60;5.07;;;7.10;79.70;;;;;;5018790;28;20034;-78
2021/12/31 08:29:42;;;;;;;6.17;4.17;;;7.10;80.40;;;;;;5024033;28;20044;-78
2021/12/31 08:32:08;;;;;;;5.83;3.63;;;7.10;79.60;;;;;;5019838;28;20477;-78
2021/12/31 08:34:34;;;;;;;10.47;5.47;;;7.00;79.90;;;;;;5003398;28;20049;-78
2021/12/31 08:36:59;;;;;;;10.50;6.10;;;7.00;80.00;;;;;;5024627;28;20040;-78
2021/12/31 08:39:25;;;;;;;10.40;5.87;;;6.90;79.60;;;;;;5023613;28;20370;-78
2021/12/31 08:41:51;;;;;;;12.93;8.90;;;6.90;80.40;;;;;;5026211;28;20032;-78
2021/12/31 08:44:17;;;;;;;17.57;7.23;;;6.90;80.30;;;;;;5027713;28;20132;-78
2021/12/31 08:46:44;;;;;;;88.83;47.03;;;7.00;80.30;;;;;;5017923;28;20108;-79
2021/12/31 08:49:10;;;;;;;11.27;8.03;;;7.10;80.30;;;;;;5019281;28;20055;-78
2021/12/31 08:51:35;;;;;;;10.37;7.03;;;7.10;80.00;;;;;;5022649;28;20029;-78
2021/12/31 08:54:01;;;;;;;19.63;12.30;;;7.10;79.70;;;;;;5022324;28;20472;-79
2021/12/31 08:56:27;;;;;;;12.03;5.97;;;7.20;80.00;;;;;;5018722;28;20041;-78
2021/12/31 08:58:53;;;;;;;9.37;6.70;;;7.20;79.70;;;;;;5000670;28;20034;-78
2021/12/31 09:01:19;;;;;;;14.70;9.63;;;7.20;79.80;;;;;;5024380;28;20041;-79
2021/12/31 09:03:45;;;;;;;13.57;9.00;;;7.20;80.50;;;;;;5022071;28;20396;-79
2021/12/31 09:06:11;;;;;;;20.30;11.27;;;7.30;79.80;;;;;;5026370;28;20056;-78
2021/12/31 09:08:37;;;;;;;7.33;5.50;;;7.40;79.60;;;;;;5027086;28;20480;-78
2021/12/31 09:11:04;;;;;;;8.23;5.87;;;7.40;79.20;;;;;;5019072;28;20087;-78
2021/12/31 09:13:31;;;;;;;7.90;5.50;;;7.40;79.20;;;;;;5023816;28;20034;-78
2021/12/31 09:15:57;;;;;;;7.43;4.90;;;7.30;79.20;;;;;;5018352;28;20028;-79
2021/12/31 09:18:23;;;;;;;6.27;4.87;;;7.30;79.00;;;;;;5026128;28;20101;-78
2021/12/31 09:20:49;;;;;;;7.57;5.57;;;7.30;79.40;;;;;;5022633;28;20554;-79
2021/12/31 09:23:15;;;;;;;7.83;5.70;;;7.40;79.30;;;;;;5030603;28;20030;-79
2021/12/31 09:25:42;;;;;;;9.10;5.50;;;7.40;79.70;;;;;;5031030;28;20034;-79
2021/12/31 09:28:07;;;;;;;5.87;4.23;;;7.30;79.40;;;;;;5023428;28;20041;-79
2021/12/31 09:30:33;;;;;;;5.37;4.07;;;7.40;79.20;;;;;;5025980;28;20029;-79
2021/12/31 09:32:59;;;;;;;7.30;5.00;;;7.40;79.00;;;;;;5028575;28;20033;-79
2021/12/31 09:35:25;;;;;;;5.40;3.60;;;7.40;79.70;;;;;;5027440;28;20514;-79
2021/12/31 09:37:51;;;;;;;5.30;4.43;;;7.50;79.00;;;;;;5029461;28;20117;-79
2021/12/31 09:40:18;;;;;;;6.47;4.43;;;7.60;79.00;;;;;;5031963;28;20030;-79
2021/12/31 09:42:59;;;;;;;6.77;5.07;;;7.60;78.80;;;;;;5028122;28;20029;-79
2021/12/31 09:45:27;;;;;;;5.73;4.43;;;7.80;79.00;;;;;;5028920;28;20088;-79
2021/12/31 09:47:58;;;;;;;7.50;4.53;;;7.90;78.40;;;;;;5020047;28;20026;-79
2021/12/31 09:50:24;;;;;;;6.40;4.43;;;8.00;78.60;;;;;;5023466;28;20702;-79
2021/12/31 09:52:52;;;;;;;9.50;5.10;;;8.20;78.40;;;;;;5015977;28;20033;-79
2021/12/31 09:55:46;;;;;;;7.03;5.57;;;8.20;78.00;;;;;;5028662;28;20040;-79
2021/12/31 09:58:16;;;;;;;6.77;4.77;;;8.20;78.20;;;;;;5020665;28;20095;-79
2021/12/31 10:00:45;;;;;;;9.17;5.67;;;8.20;78.40;;;;;;5018979;28;20029;-79
2021/12/31 10:03:25;;;;;;;6.43;4.57;;;8.50;78.40;;;;;;5020621;28;20160;-79
2021/12/31 10:05:52;;;;;;;8.17;4.97;;;8.90;77.50;;;;;;5021146;28;20029;-79
2021/12/31 10:08:31;;;;;;;6.17;3.87;;;9.00;77.10;;;;;;5025213;28;20038;-80
2021/12/31 10:11:29;;;;;;;8.03;4.27;;;9.10;76.50;;;;;;5030162;28;20065;-79
2021/12/31 10:14:05;;;;;;;5.67;4.07;;;9.20;76.50;;;;;;5014611;28;20378;-79
2021/12/31 10:16:41;;;;;;;5.87;4.43;;;9.20;76.40;;;;;;5026690;28;20437;-79
2021/12/31 10:19:21;;;;;;;7.57;4.40;;;9.30;76.40;;;;;;5030235;28;20385;-80
2021/12/31 10:21:51;;;;;;;4.53;2.57;;;9.50;76.10;;;;;;5015766;28;20079;-80
2021/12/31 10:24:25;;;;;;;4.63;3.50;;;9.70;75.60;;;;;;5028120;28;20374;-79
2021/12/31 10:27:00;;;;;;;7.40;3.70;;;9.90;75.00;;;;;;5022089;28;20117;-80
2021/12/31 10:29:26;;;;;;;6.47;3.30;;;10.20;74.70;;;;;;5021226;28;20034;-80
2021/12/31 10:31:53;;;;;;;4.63;3.43;;;10.40;73.80;;;;;;5022080;28;20037;-79
2021/12/31 10:34:28;;;;;;;5.20;3.77;;;10.50;73.20;;;;;;5025701;28;20038;-80
2021/12/31 10:37:16;;;;;;;4.57;3.73;;;10.60;72.80;;;;;;5029188;28;20496;-80
2021/12/31 10:39:42;;;;;;;4.67;3.57;;;10.80;72.40;;;;;;5029876;28;20125;-80
2021/12/31 10:42:09;;;;;;;5.17;3.60;;;11.10;72.10;;;;;;5023485;28;20097;-80
2021/12/31 10:44:48;;;;;;;4.50;3.47;;;11.10;71.40;;;;;;5027065;28;20472;-80
2021/12/31 10:47:18;;;;;;;6.03;4.03;;;11.10;71.00;;;;;;5022007;28;20030;-80
2021/12/31 10:50:02;;;;;;;5.80;3.77;;;11.20;70.80;;;;;;5025356;28;20065;-80
2021/12/31 10:52:41;;;;;;;6.10;3.33;;;11.30;71.20;;;;;;5017844;28;20112;-80
2021/12/31 10:57:42;;;;;;;3.87;3.17;;;11.40;70.70;;;;;;5022330;28;20038;-80
2021/12/31 11:00:10;;;;;;;11.63;3.40;;;11.40;70.40;;;;;;5034747;28;21057;-80
2021/12/31 11:02:37;;;;;;;6.10;3.60;;;11.50;70.00;;;;;;5020822;28;20038;-80
2021/12/31 11:05:05;;;;;;;5.30;3.43;;;11.60;69.70;;;;;;5023589;28;20041;-79
2021/12/31 11:07:31;;;;;;;3.17;2.40;;;11.70;69.70;;;;;;5022827;28;20125;-79
2021/12/31 11:09:58;;;;;;;3.10;2.60;;;11.80;68.90;;;;;;5027769;28;20053;-80
2021/12/31 11:12:28;;;;;;;4.47;3.57;;;11.70;68.80;;;;;;5021408;28;20034;-80
2021/12/31 11:14:57;;;;;;;3.87;3.10;;;11.80;69.10;;;;;;5023320;28;20060;-80
2021/12/31 11:17:23;;;;;;;4.70;2.33;;;11.80;68.40;;;;;;5021117;28;20029;-80
2021/12/31 11:19:50;;;;;;;3.90;2.60;;;11.80;68.30;;;;;;5023325;28;20382;-80
2021/12/31 11:22:28;;;;;;;3.63;2.60;;;11.90;68.00;;;;;;5022977;28;20394;-80
2021/12/31 11:25:17;;;;;;;3.13;2.30;;;11.90;67.50;;;;;;5027660;28;20079;-79
2021/12/31 11:27:46;;;;;;;3.73;2.50;;;11.80;67.30;;;;;;5023365;28;20030;-80
2021/12/31 11:30:31;;;;;;;2.70;2.20;;;11.80;67.20;;;;;;5025810;28;20037;-80
2021/12/31 11:33:04;;;;;;;4.20;3.27;;;12.00;66.80;;;;;;5030028;28;20033;-79
2021/12/31 11:35:40;;;;;;;3.43;2.53;;;12.10;66.40;;;;;;5022650;28;20496;-79
2021/12/31 11:38:11;;;;;;;4.57;3.17;;;12.10;66.40;;;;;;5032192;28;20368;-80
2021/12/31 11:40:41;;;;;;;3.17;2.00;;;12.20;66.70;;;;;;5021437;28;20045;-80
2021/12/31 11:43:25;;;;;;;2.50;2.10;;;12.10;66.20;;;;;;5025684;28;20056;-80
2021/12/31 11:46:09;;;;;;;3.10;2.27;;;12.00;65.90;;;;;;5018968;28;20504;-80
2021/12/31 11:48:50;;;;;;;2.73;1.97;;;11.90;65.80;;;;;;5022460;28;20040;-80
2021/12/31 11:51:20;;;;;;;3.00;2.57;;;12.00;65.50;;;;;;5020685;28;20060;-80
2021/12/31 11:53:55;;;;;;;2.87;2.10;;;12.00;65.40;;;;;;5025728;28;20033;-80
2021/12/31 11:56:36;;;;;;;3.90;2.40;;;12.00;65.50;;;;;;5032674;28;20029;-80
2021/12/31 11:59:08;;;;;;;2.77;2.13;;;12.10;65.50;;;;;;5031331;28;20026;-80
2021/12/31 12:01:37;;;;;;;4.05;2.40;;;12.20;65.50;;;;;;5015410;28;20065;-80
2021/12/31 12:04:32;;;;;;;3.03;2.13;;;12.30;65.40;;;;;;5022347;28;20069;-80
2021/12/31 12:07:28;;;;;;;4.00;2.43;;;12.50;65.20;;;;;;5030878;28;20033;-79
2021/12/31 12:09:54;;;;;;;4.60;2.00;;;12.60;64.80;;;;;;5024284;28;20502;-80
2021/12/31 12:12:29;;;;;;;3.70;2.23;;;12.60;65.10;;;;;;5032172;28;20021;-79
2021/12/31 12:14:56;;;;;;;3.40;2.33;;;12.70;64.60;;;;;;5030653;28;20024;-80
2021/12/31 12:17:30;;;;;;;4.20;2.50;;;12.80;64.60;;;;;;5010608;28;20507;-80
2021/12/31 12:20:02;;;;;;;7.93;2.30;;;12.90;64.00;;;;;;5012437;28;20535;-79
2021/12/31 12:22:31;;;;;;;3.10;2.38;;;13.00;64.00;;;;;;5012919;28;20033;-80
2021/12/31 12:25:00;;;;;;;3.07;2.57;;;13.00;63.60;;;;;;5025769;28;20029;-79
2021/12/31 12:27:27;;;;;;;3.40;2.47;;;13.10;63.70;;;;;;5026233;28;20080;-80
2021/12/31 12:29:54;;;;;;;3.90;2.47;;;13.00;63.50;;;;;;5026134;28;20039;-80
2021/12/31 12:33:15;;;;;;;3.20;2.30;;;13.00;63.50;;;;;;5020841;28;20025;-80
2021/12/31 12:35:22;;;;;;;3.57;2.63;;;13.00;63.60;;;;;;5022924;28;20033;-79
2021/12/31 12:38:01;;;;;;;3.40;2.50;;;13.00;63.20;;;;;;5027253;28;20068;-80
2021/12/31 12:40:45;;;;;;;3.73;2.43;;;13.00;63.10;;;;;;5028778;28;20518;-79
2021/12/31 12:43:35;;;;;;;3.63;2.43;;;12.90;62.90;;;;;;5031082;28;20364;-80
2021/12/31 12:46:13;;;;;;;4.57;2.43;;;12.90;63.00;;;;;;5019090;28;20048;-80
2021/12/31 12:48:39;;;;;;;5.13;2.70;;;12.90;63.50;;;;;;5028711;28;20040;-80
2021/12/31 12:51:07;;;;;;;4.27;2.87;;;13.00;63.80;;;;;;5027727;28;20025;-80
2021/12/31 12:53:38;;;;;;;3.57;2.90;;;13.10;63.60;;;;;;5030984;28;20029;-80
2021/12/31 12:56:18;;;;;;;4.70;3.03;;;13.00;63.60;;;;;;5030308;28;20103;-80
2021/12/31 12:58:52;;;;;;;3.40;2.10;;;13.20;63.50;;;;;;5025924;28;20022;-80
2021/12/31 13:01:18;;;;;;;3.23;2.27;;;13.00;63.10;;;;;;5021095;28;20038;-80
2021/12/31 13:03:53;;;;;;;3.33;2.57;;;13.00;63.80;;;;;;5028649;28;20029;-80